createdAt,value
2019-05-23T00:02:35.124Z,7.23
2019-05-23T00:08:00.896Z,6.63
2019-05-23T00:13:49.668Z,8.13
2019-05-23T00:19:14.209Z,7.50
2019-05-23T00:24:41.150Z,7.57
2019-05-23T00:30:06.086Z,7.40
2019-05-23T00:35:31.312Z,7.07
2019-05-23T00:40:54.998Z,7.93
2019-05-23T00:46:19.141Z,7.27
2019-05-23T00:51:43.675Z,7.67
2019-05-23T00:57:09.997Z,7.80
2019-05-23T01:02:34.500Z,7.93
2019-05-23T01:07:58.544Z,7.83
2019-05-23T01:13:23.623Z,7.03
2019-05-23T01:18:47.408Z,8.17
2019-05-23T01:24:22.174Z,6.70
2019-05-23T01:29:50.087Z,8.00
2019-05-23T01:35:17.383Z,7.67
2019-05-23T01:40:41.503Z,7.60
2019-05-23T01:46:05.339Z,6.93
2019-05-23T01:51:30.606Z,7.90
2019-05-23T01:56:54.066Z,6.73
2019-05-23T02:02:19.266Z,17.20
2019-05-23T02:07:42.972Z,16.40
2019-05-23T02:13:08.944Z,8.80
2019-05-23T02:18:33.871Z,11.97
2019-05-23T02:23:57.772Z,17.43
2019-05-23T02:29:22.850Z,11.37
2019-05-23T02:34:47.513Z,18.20
2019-05-23T02:40:18.453Z,12.67
2019-05-23T02:45:45.527Z,9.40
2019-05-23T02:51:14.599Z,18.23
2019-05-23T02:56:40.096Z,13.93
2019-05-23T03:02:43.886Z,12.47
2019-05-23T03:08:10.362Z,8.30
2019-05-23T03:13:38.065Z,11.07
2019-05-23T03:19:05.624Z,11.40
2019-05-23T03:24:28.770Z,6.80
2019-05-23T03:29:53.828Z,7.23
2019-05-23T03:35:25.025Z,7.00
2019-05-23T03:40:48.659Z,8.30
2019-05-23T03:46:13.487Z,7.07
2019-05-23T03:51:37.156Z,11.70
2019-05-23T03:57:00.572Z,15.13
2019-05-23T04:02:26.583Z,8.80
2019-05-23T04:07:51.600Z,13.33
2019-05-23T04:13:15.393Z,8.43
2019-05-23T04:18:38.580Z,8.97
2019-05-23T04:24:02.917Z,11.50
2019-05-23T04:29:28.097Z,8.03
2019-05-23T04:34:52.865Z,16.10
2019-05-23T04:40:16.748Z,12.30
2019-05-23T04:45:42.014Z,15.07
2019-05-23T04:51:05.794Z,20.50
2019-05-23T04:56:30.640Z,21.30
2019-05-23T05:01:56.416Z,20.73
2019-05-23T05:07:20.366Z,20.80
2019-05-23T05:12:44.952Z,18.43
2019-05-23T05:18:09.831Z,21.77
2019-05-23T05:23:33.510Z,21.30
2019-05-23T05:28:57.669Z,19.03
2019-05-23T05:34:20.761Z,22.33
2019-05-23T05:39:43.829Z,21.17
2019-05-23T05:45:08.145Z,20.77
2019-05-23T05:50:31.616Z,23.53
2019-05-23T05:55:55.188Z,20.53
2019-05-23T06:01:32.736Z,19.70
2019-05-23T06:06:52.182Z,19.63
2019-05-23T06:12:15.880Z,21.03
2019-05-23T06:17:40.083Z,19.23
2019-05-23T06:23:05.544Z,22.73
2019-05-23T06:28:29.291Z,21.43
2019-05-23T06:33:54.356Z,21.10
2019-05-23T06:39:17.912Z,20.97
2019-05-23T06:44:42.127Z,23.47
2019-05-23T06:50:10.399Z,21.97
2019-05-23T06:55:34.616Z,21.33
2019-05-23T07:00:58.071Z,24.20
2019-05-23T07:06:24.477Z,22.30
2019-05-23T07:11:48.205Z,22.57
2019-05-23T07:17:13.031Z,13.00
2019-05-23T07:22:36.779Z,19.27
2019-05-23T07:28:00.535Z,26.67
2019-05-23T07:33:24.224Z,26.17
2019-05-23T07:38:47.581Z,29.03
2019-05-23T07:44:11.829Z,26.87
2019-05-23T07:49:35.202Z,22.57
2019-05-23T07:55:03.667Z,27.70
2019-05-23T08:00:31.171Z,27.83
2019-05-23T08:05:54.842Z,24.60
2019-05-23T08:11:18.792Z,24.33
2019-05-23T08:16:42.208Z,21.57
2019-05-23T08:22:06.367Z,23.60
2019-05-23T08:27:30.295Z,16.80
2019-05-23T08:32:54.692Z,17.90
2019-05-23T08:38:19.706Z,17.03
2019-05-23T08:43:43.407Z,16.43
2019-05-23T08:49:09.072Z,11.67
2019-05-23T08:54:33.203Z,15.23
2019-05-23T08:59:56.705Z,8.00
2019-05-23T09:05:21.521Z,6.37
2019-05-23T09:10:44.347Z,14.83
2019-05-23T09:16:07.655Z,8.27
2019-05-23T09:21:31.717Z,15.57
2019-05-23T09:26:55.293Z,11.23
2019-05-23T09:32:19.236Z,12.30
2019-05-23T09:37:42.438Z,6.03
2019-05-23T09:43:06.427Z,7.47
2019-05-23T09:48:29.611Z,10.37
2019-05-23T09:53:52.306Z,9.33
2019-05-23T09:59:15.670Z,5.03
2019-05-23T10:04:38.794Z,4.37
2019-05-23T10:10:03.183Z,5.90
2019-05-23T10:15:49.643Z,9.43
2019-05-23T10:21:13.146Z,5.83
2019-05-23T10:26:37.026Z,5.07
2019-05-23T10:32:00.803Z,10.33
2019-05-23T10:37:24.604Z,8.40
2019-05-23T10:42:47.767Z,8.37
2019-05-23T10:48:11.957Z,7.53
2019-05-23T10:53:35.358Z,3.93
2019-05-23T10:58:58.866Z,7.30
2019-05-23T11:04:22.349Z,8.50
2019-05-23T11:09:46.191Z,8.40
2019-05-23T11:15:10.650Z,7.83
2019-05-23T11:20:36.090Z,4.77
2019-05-23T11:26:01.607Z,2.90
2019-05-23T11:31:25.430Z,4.60
2019-05-23T11:36:48.653Z,5.83
2019-05-23T11:42:11.791Z,7.13
2019-05-23T11:47:35.290Z,6.60
2019-05-23T11:52:59.593Z,3.50
2019-05-23T11:58:23.784Z,7.90
2019-05-23T12:03:50.580Z,7.10
2019-05-23T12:09:18.674Z,7.30
2019-05-23T12:14:42.718Z,3.07
2019-05-23T12:20:07.029Z,5.50
2019-05-23T12:25:31.840Z,7.57
2019-05-23T12:30:55.390Z,3.73
2019-05-23T12:36:18.524Z,7.60
2019-05-23T12:41:42.333Z,7.73
2019-05-23T12:47:07.487Z,4.80
2019-05-23T12:52:32.305Z,3.03
2019-05-23T12:57:55.419Z,2.87
2019-05-23T13:03:19.218Z,2.87
2019-05-23T13:08:43.155Z,3.53
2019-05-23T13:14:06.696Z,3.67
2019-05-23T13:19:30.199Z,2.97
2019-05-23T13:24:53.609Z,3.27
2019-05-23T13:30:17.532Z,3.37
2019-05-23T13:35:42.037Z,2.50
2019-05-23T13:41:05.979Z,3.10
2019-05-23T13:46:29.386Z,3.97
2019-05-23T13:51:52.904Z,3.40
2019-05-23T13:57:17.061Z,2.50
2019-05-23T14:02:40.803Z,2.40
2019-05-23T14:08:12.410Z,2.00
2019-05-23T14:13:30.123Z,1.93
2019-05-23T14:18:53.626Z,2.50
2019-05-23T14:24:17.604Z,2.27
2019-05-23T14:29:41.260Z,1.70
2019-05-23T14:35:05.226Z,2.00
2019-05-23T14:40:30.051Z,2.73
2019-05-23T14:46:11.526Z,2.10
2019-05-23T14:51:52.331Z,2.53
2019-05-23T14:57:16.196Z,2.00
2019-05-23T15:02:40.236Z,1.93
2019-05-23T15:08:03.514Z,3.20
2019-05-23T15:13:26.895Z,2.43
2019-05-23T15:18:50.407Z,2.10
2019-05-23T15:24:14.298Z,2.00
2019-05-23T15:29:37.818Z,1.90
2019-05-23T15:35:00.973Z,2.10
2019-05-23T15:40:24.724Z,2.40
2019-05-23T15:45:49.009Z,2.40
2019-05-23T15:51:14.583Z,2.30
2019-05-23T15:57:03.118Z,2.00
2019-05-23T16:02:34.424Z,1.60
2019-05-23T16:07:57.879Z,2.90
2019-05-23T16:13:21.845Z,2.27
2019-05-23T16:18:46.414Z,2.63
2019-05-23T16:24:11.419Z,1.73
2019-05-23T16:29:35.636Z,1.97
2019-05-23T16:34:59.280Z,1.90
2019-05-23T16:40:23.149Z,2.50
2019-05-23T16:45:46.752Z,1.87
2019-05-23T16:51:10.397Z,2.00
2019-05-23T16:56:45.368Z,1.83
2019-05-23T17:02:26.643Z,2.03
2019-05-23T17:08:08.855Z,1.80
2019-05-23T17:13:46.251Z,2.10
2019-05-23T17:19:26.789Z,1.93
2019-05-23T17:24:58.146Z,2.43
2019-05-23T17:30:33.971Z,2.80
2019-05-23T17:35:57.342Z,2.43
2019-05-23T17:41:21.543Z,2.23
2019-05-23T17:46:45.379Z,2.10
2019-05-23T17:52:08.967Z,2.20
2019-05-23T17:57:32.312Z,2.53
2019-05-23T18:02:56.342Z,3.03
2019-05-23T18:08:19.938Z,2.10
2019-05-23T18:13:43.858Z,3.10
2019-05-23T18:19:07.667Z,2.40
2019-05-23T18:24:30.963Z,2.87
2019-05-23T18:29:54.068Z,2.57
2019-05-23T18:35:18.027Z,2.63
2019-05-23T18:40:42.650Z,2.10
2019-05-23T18:46:11.112Z,2.60
2019-05-23T18:51:34.755Z,4.60
2019-05-23T18:56:58.915Z,2.77
2019-05-23T19:02:24.220Z,2.10
2019-05-23T19:07:48.468Z,2.30
2019-05-23T19:13:12.766Z,1.47
2019-05-23T19:18:37.678Z,1.73
2019-05-23T19:24:02.201Z,1.73
2019-05-23T19:29:26.834Z,1.90
2019-05-23T19:34:51.093Z,1.67
2019-05-23T19:40:15.366Z,1.43
2019-05-23T19:45:39.731Z,1.93
2019-05-23T19:51:03.508Z,1.70
2019-05-23T19:56:27.827Z,1.33
2019-05-23T20:02:10.420Z,1.53
2019-05-23T20:07:34.686Z,1.80
2019-05-23T20:12:58.815Z,1.63
2019-05-23T20:18:23.859Z,1.60
2019-05-23T20:23:47.319Z,1.90
2019-05-23T20:29:11.685Z,2.10
2019-05-23T20:34:36.100Z,1.90
2019-05-23T20:40:00.256Z,2.20
2019-05-23T20:45:24.682Z,2.37
2019-05-23T20:50:48.355Z,2.57
2019-05-23T20:56:12.374Z,3.00
2019-05-23T21:01:40.072Z,2.73
2019-05-23T21:07:04.098Z,3.17
2019-05-23T21:12:30.399Z,3.47
2019-05-23T21:17:53.196Z,3.27
2019-05-23T21:23:17.074Z,3.23
2019-05-23T21:28:42.140Z,2.87
2019-05-23T21:34:06.341Z,3.23
2019-05-23T21:39:30.549Z,2.83
2019-05-23T21:44:54.567Z,2.80
2019-05-23T21:50:18.374Z,2.67
2019-05-23T21:55:45.793Z,3.40
2019-05-23T22:01:37.624Z,3.07
2019-05-23T22:07:06.201Z,3.00
2019-05-23T22:12:30.177Z,2.83
2019-05-23T22:17:54.093Z,2.80
2019-05-23T22:23:18.135Z,2.87
2019-05-23T22:28:41.753Z,2.63
2019-05-23T22:34:19.330Z,3.50
2019-05-23T22:39:43.573Z,3.27
2019-05-23T22:45:12.775Z,2.60
2019-05-23T22:50:36.385Z,2.87
2019-05-23T22:56:00.060Z,2.73
2019-05-23T23:01:25.603Z,2.97
2019-05-23T23:06:48.952Z,2.73
2019-05-23T23:12:12.786Z,2.70
2019-05-23T23:17:35.867Z,3.00
2019-05-23T23:22:59.459Z,2.83
2019-05-23T23:28:22.461Z,2.60
2019-05-23T23:33:45.663Z,3.40
2019-05-23T23:39:09.590Z,3.53
2019-05-23T23:44:35.283Z,2.97
2019-05-23T23:50:16.820Z,3.10
2019-05-23T23:55:58.521Z,2.60
